KRWF/RWF METAR and TAF weather

Enter ICAO airport designator
Station Type Date Time Source
KRWF METAR 2020/09/20 01:53 UTC NOAA

KRWF 200153Z AUTO 14011KT 10SM CLR 17/08 A3007 RMK AO2 SLP183 T01670083


Station Type Date Time Source
KRWF Decoded METAR 2020/09/20 01:53 UTC NOAA

REDWOOD FALLS MUNICIPAL, MN, United States (KRWF) 44-33N 95-05W 311M
Sep 19, 2020 - 09:53 PM EDT / 2020.09.20 0153 UTC
Wind: from the SE (140 degrees) at 13 MPH (11 KT):0
Visibility: 10 mile(s):0
Sky conditions: clear
Temperature: 62.1 F (16.7 C)
Dew Point: 46.9 F (8.3 C)
Relative Humidity: 57%
Pressure (altimeter): 30.07 in. Hg (1018 hPa)
ob: KRWF 200153Z AUTO 14011KT 10SM CLR 17/08 A3007 RMK AO2 SLP183 T01670083
cycle: 2

Station Type Date Time Source
KRWF TAF 2020/09/19 18:42 UTC NOAA

KRWF 191739Z 1918/2018 17014G22KT P6SM SCT070 BKN200
FM200100 15012G18KT P6SM BKN250
FM200500 15013G20KT P6SM FEW120 BKN250 WS020/19040KT
FM201400 17020G34KT P6SM FEW120 BKN250

Example: see airport list